createdAt,value
2023-04-23T00:01:43.501Z,13.80
2023-04-23T00:04:35.067Z,13.80
2023-04-23T00:07:22.017Z,13.70
2023-04-23T00:10:11.236Z,13.70
2023-04-23T00:12:59.146Z,13.60
2023-04-23T00:15:46.431Z,13.60
2023-04-23T00:18:32.496Z,13.60
2023-04-23T00:21:18.068Z,13.60
2023-04-23T00:24:03.839Z,13.80
2023-04-23T00:26:49.110Z,13.80
2023-04-23T00:29:36.857Z,13.70
2023-04-23T00:32:22.820Z,13.70
2023-04-23T00:35:08.869Z,13.70
2023-04-23T00:37:54.184Z,13.80
2023-04-23T00:40:42.638Z,13.90
2023-04-23T00:43:28.608Z,13.90
2023-04-23T00:46:14.074Z,14.00
2023-04-23T00:49:00.489Z,14.00
2023-04-23T00:51:48.184Z,14.10
2023-04-23T00:54:33.438Z,14.10
2023-04-23T00:57:18.808Z,14.20
2023-04-23T01:00:07.826Z,14.20
2023-04-23T01:02:54.076Z,14.20
2023-04-23T01:05:42.125Z,14.20
2023-04-23T01:08:31.758Z,14.30
2023-04-23T01:11:17.431Z,14.30
2023-04-23T01:14:03.718Z,14.30
2023-04-23T01:16:50.545Z,14.30
2023-04-23T01:19:36.750Z,14.30
2023-04-23T01:22:22.315Z,14.40
2023-04-23T01:25:10.223Z,14.40
2023-04-23T01:27:57.124Z,14.30
2023-04-23T01:30:46.641Z,14.30
2023-04-23T01:33:32.572Z,14.30
2023-04-23T01:36:19.194Z,14.30
2023-04-23T01:39:04.418Z,14.30
2023-04-23T01:41:50.450Z,14.40
2023-04-23T01:44:36.428Z,14.40
2023-04-23T01:47:27.732Z,14.40
2023-04-23T01:50:13.857Z,14.40
2023-04-23T01:52:59.620Z,14.40
2023-04-23T01:55:50.078Z,14.40
2023-04-23T01:58:35.420Z,14.40
2023-04-23T02:01:20.828Z,14.40
2023-04-23T02:04:06.547Z,14.40
2023-04-23T02:06:52.366Z,14.40
2023-04-23T02:09:37.859Z,14.40
2023-04-23T02:12:23.144Z,14.50
2023-04-23T02:15:10.109Z,14.40
2023-04-23T02:17:56.031Z,14.50
2023-04-23T02:20:41.660Z,14.40
2023-04-23T02:23:27.245Z,14.30
2023-04-23T02:26:12.504Z,14.20
2023-04-23T02:28:58.010Z,14.00
2023-04-23T02:31:43.347Z,13.90
2023-04-23T02:34:28.690Z,13.80
2023-04-23T02:37:14.206Z,13.70
2023-04-23T02:39:59.673Z,13.60
2023-04-23T02:42:49.733Z,13.50
2023-04-23T02:45:38.059Z,13.40
2023-04-23T02:48:23.932Z,13.40
2023-04-23T02:51:12.403Z,13.40
2023-04-23T02:53:58.056Z,13.30
2023-04-23T02:56:43.437Z,13.30
2023-04-23T02:59:29.062Z,13.50
2023-04-23T03:02:14.469Z,13.70
2023-04-23T03:05:00.206Z,13.80
2023-04-23T03:07:45.630Z,13.70
2023-04-23T03:10:30.971Z,13.80
2023-04-23T03:13:16.610Z,13.80
2023-04-23T03:16:01.963Z,13.80
2023-04-23T03:18:47.620Z,13.80
2023-04-23T03:21:35.704Z,13.80
2023-04-23T03:24:23.582Z,13.80
2023-04-23T03:27:08.957Z,13.90
2023-04-23T03:29:54.570Z,13.90
2023-04-23T03:32:42.377Z,13.80
2023-04-23T03:35:28.465Z,13.70
2023-04-23T03:38:14.189Z,13.70
2023-04-23T03:40:59.555Z,13.70
2023-04-23T03:43:45.314Z,13.60
2023-04-23T03:46:30.832Z,13.60
2023-04-23T03:49:18.519Z,13.60
2023-04-23T03:52:04.226Z,13.60
2023-04-23T03:54:49.760Z,13.50
2023-04-23T03:57:38.757Z,13.50
2023-04-23T04:00:24.108Z,13.50
2023-04-23T04:03:09.911Z,13.50
2023-04-23T04:05:55.594Z,13.60
2023-04-23T04:08:43.892Z,13.60
2023-04-23T04:11:29.309Z,13.60
2023-04-23T04:14:14.613Z,13.70
2023-04-23T04:17:00.143Z,13.80
2023-04-23T04:19:45.496Z,13.90
2023-04-23T04:22:30.975Z,13.90
2023-04-23T04:25:16.442Z,14.00
2023-04-23T04:28:01.674Z,14.00
2023-04-23T04:30:50.108Z,14.20
2023-04-23T04:33:36.346Z,14.30
2023-04-23T04:36:25.167Z,14.30
2023-04-23T04:39:14.826Z,14.40
2023-04-23T04:42:03.970Z,14.60
2023-04-23T04:44:52.373Z,14.70
2023-04-23T04:47:38.062Z,14.80
2023-04-23T04:50:24.408Z,15.00
2023-04-23T04:53:10.143Z,15.00
2023-04-23T04:55:55.597Z,15.10
2023-04-23T04:58:40.951Z,15.00
2023-04-23T05:01:28.807Z,14.90
2023-04-23T05:04:14.734Z,14.90
2023-04-23T05:07:00.045Z,14.80
2023-04-23T05:09:45.516Z,14.80
2023-04-23T05:12:31.287Z,14.80
2023-04-23T05:15:18.921Z,14.90
2023-04-23T05:18:07.849Z,15.00
2023-04-23T05:20:56.917Z,15.00
2023-04-23T05:23:42.217Z,15.00
2023-04-23T05:26:27.583Z,15.10
2023-04-23T05:29:17.845Z,15.10
2023-04-23T05:32:03.445Z,15.30
2023-04-23T05:34:49.081Z,15.40
2023-04-23T05:37:36.752Z,15.50
2023-04-23T05:40:24.585Z,15.50
2023-04-23T05:43:09.986Z,15.50
2023-04-23T05:45:57.675Z,15.50
2023-04-23T05:48:43.160Z,15.60
2023-04-23T05:51:28.495Z,15.60
2023-04-23T05:54:14.024Z,15.70
2023-04-23T05:56:59.497Z,15.80
2023-04-23T05:59:44.963Z,15.80
2023-04-23T06:02:30.724Z,15.70
2023-04-23T06:05:16.975Z,15.60
2023-04-23T06:08:02.399Z,15.70
2023-04-23T06:10:50.242Z,15.80
2023-04-23T06:13:44.168Z,15.70
2023-04-23T06:16:30.572Z,15.70
2023-04-23T06:19:16.128Z,15.80
2023-04-23T06:22:01.630Z,16.00
2023-04-23T06:24:47.433Z,16.00
2023-04-23T06:27:33.780Z,16.20
2023-04-23T06:30:21.620Z,16.40
2023-04-23T06:33:09.180Z,16.50
2023-04-23T06:35:54.385Z,16.40
2023-04-23T06:38:39.787Z,16.50
2023-04-23T06:41:26.107Z,16.40
2023-04-23T06:44:12.097Z,16.40
2023-04-23T06:47:00.751Z,16.40
2023-04-23T06:49:46.295Z,16.30
2023-04-23T06:52:31.471Z,16.40
2023-04-23T06:55:19.627Z,16.30
2023-04-23T06:58:07.230Z,16.40
2023-04-23T07:00:53.157Z,16.40
2023-04-23T07:03:38.779Z,16.10
2023-04-23T07:06:27.838Z,16.20
2023-04-23T07:09:13.158Z,16.00
2023-04-23T07:12:01.634Z,15.60
2023-04-23T07:14:47.293Z,15.60
2023-04-23T07:17:32.978Z,15.20
2023-04-23T07:20:18.743Z,15.10
2023-04-23T07:23:04.223Z,14.90
2023-04-23T07:25:49.539Z,14.90
2023-04-23T07:28:35.128Z,14.80
2023-04-23T07:31:21.121Z,14.60
2023-04-23T07:34:06.660Z,14.50
2023-04-23T07:36:52.196Z,14.30
2023-04-23T07:39:41.751Z,14.30
2023-04-23T07:42:29.078Z,14.20
2023-04-23T07:45:14.603Z,14.30
2023-04-23T07:48:01.761Z,14.50
2023-04-23T07:50:47.676Z,14.60
2023-04-23T07:53:33.057Z,14.70
2023-04-23T07:56:18.423Z,14.60
2023-04-23T07:59:06.745Z,14.70
2023-04-23T08:01:52.826Z,14.70
2023-04-23T08:04:41.009Z,14.80
2023-04-23T08:07:29.851Z,15.10
2023-04-23T08:10:17.850Z,15.10
2023-04-23T08:13:03.460Z,15.00
2023-04-23T08:15:52.143Z,15.10
2023-04-23T08:18:37.764Z,15.20
2023-04-23T08:21:24.549Z,15.30
2023-04-23T08:24:10.271Z,15.40
2023-04-23T08:26:55.633Z,15.50
2023-04-23T08:29:40.988Z,15.50
2023-04-23T08:32:27.033Z,15.60
2023-04-23T08:35:14.644Z,15.80
2023-04-23T08:38:02.273Z,16.00
2023-04-23T08:40:50.896Z,16.20
2023-04-23T08:43:46.852Z,16.50
2023-04-23T08:46:33.307Z,17.00
2023-04-23T08:49:19.623Z,17.30
2023-04-23T08:52:26.569Z,17.60
2023-04-23T08:55:12.569Z,18.10
2023-04-23T08:58:02.891Z,18.50
2023-04-23T09:00:51.742Z,18.50
2023-04-23T09:03:38.168Z,18.20
2023-04-23T09:06:24.134Z,17.70
2023-04-23T09:09:10.063Z,17.10
2023-04-23T09:11:58.895Z,16.80
2023-04-23T09:14:45.051Z,16.70
2023-04-23T09:17:35.788Z,16.50
2023-04-23T09:20:21.155Z,16.10
2023-04-23T09:23:08.299Z,15.80
2023-04-23T09:25:53.972Z,15.40
2023-04-23T09:28:39.884Z,15.40
2023-04-23T09:31:27.712Z,15.20
2023-04-23T09:34:21.336Z,15.10
2023-04-23T09:37:11.182Z,14.90
2023-04-23T09:40:01.909Z,14.70
2023-04-23T09:42:55.023Z,14.80
2023-04-23T09:45:50.307Z,14.50
2023-04-23T09:48:45.126Z,14.60
2023-04-23T09:51:31.418Z,14.10
2023-04-23T09:54:24.989Z,14.10
2023-04-23T09:57:14.029Z,14.20
2023-04-23T10:00:07.359Z,14.00
2023-04-23T10:03:01.018Z,14.00
2023-04-23T10:06:00.476Z,14.10
2023-04-23T10:08:48.256Z,13.90
2023-04-23T10:11:33.991Z,14.00
2023-04-23T10:14:24.088Z,14.00
2023-04-23T10:17:10.830Z,13.90
2023-04-23T10:19:56.493Z,13.90
2023-04-23T10:22:45.423Z,14.10
2023-04-23T10:25:31.420Z,13.90
2023-04-23T10:28:21.888Z,14.00
2023-04-23T10:31:07.411Z,14.00
2023-04-23T10:33:58.631Z,14.60
2023-04-23T10:36:45.191Z,14.90
2023-04-23T10:39:35.435Z,15.20
2023-04-23T10:42:22.165Z,15.60
2023-04-23T10:48:08.653Z,17.60
2023-04-23T10:53:52.386Z,17.20
2023-04-23T10:56:42.228Z,17.40
2023-04-23T10:59:32.184Z,17.80
2023-04-23T11:02:20.177Z,18.60
2023-04-23T11:05:09.709Z,18.60
2023-04-23T11:08:19.264Z,19.50
2023-04-23T11:11:12.201Z,19.40
2023-04-23T11:13:59.104Z,19.30
2023-04-23T11:16:48.663Z,18.40
2023-04-23T11:19:42.010Z,19.10
2023-04-23T11:22:37.739Z,19.70
2023-04-23T11:25:26.103Z,19.10
2023-04-23T11:28:12.034Z,17.90
2023-04-23T11:30:59.240Z,17.50
2023-04-23T11:33:44.704Z,17.00
2023-04-23T11:36:30.134Z,18.70
2023-04-23T11:39:15.838Z,19.00
2023-04-23T11:42:03.233Z,18.60
2023-04-23T11:44:49.278Z,18.00
2023-04-23T11:47:34.810Z,18.10
2023-04-23T11:50:22.359Z,18.20
2023-04-23T11:53:11.856Z,18.20
2023-04-23T11:55:57.989Z,18.50
2023-04-23T11:58:43.313Z,19.40
2023-04-23T12:01:42.687Z,18.80
2023-04-23T12:04:33.007Z,19.00
2023-04-23T12:07:26.276Z,18.50
2023-04-23T12:10:21.210Z,18.70
2023-04-23T12:13:06.405Z,18.60
2023-04-23T12:15:57.497Z,19.40
2023-04-23T12:18:44.435Z,19.90
2023-04-23T12:21:30.182Z,20.20
2023-04-23T12:24:16.025Z,20.70
2023-04-23T12:27:03.012Z,22.00
2023-04-23T12:29:49.178Z,21.10
2023-04-23T12:32:35.325Z,21.50
2023-04-23T12:35:21.020Z,22.20
2023-04-23T12:38:06.679Z,22.00
2023-04-23T12:40:53.804Z,23.60
2023-04-23T12:43:39.293Z,24.60
2023-04-23T12:46:24.868Z,29.90
2023-04-23T12:49:11.149Z,35.00
2023-04-23T12:52:02.985Z,37.00
2023-04-23T12:54:52.166Z,34.50
2023-04-23T12:57:37.710Z,37.90
2023-04-23T13:00:23.370Z,38.80
2023-04-23T13:03:09.043Z,42.50
2023-04-23T13:05:54.826Z,42.20
2023-04-23T13:08:40.422Z,40.30
2023-04-23T13:11:25.868Z,45.90
2023-04-23T13:14:11.466Z,49.40
2023-04-23T13:16:57.968Z,50.10
2023-04-23T13:19:44.878Z,50.30
2023-04-23T13:22:31.435Z,51.20
2023-04-23T13:25:16.912Z,50.60
2023-04-23T13:28:04.581Z,40.70
2023-04-23T13:30:50.064Z,42.20
2023-04-23T13:33:35.679Z,45.30
2023-04-23T13:36:22.011Z,44.20
2023-04-23T13:39:09.013Z,43.10
2023-04-23T13:42:08.871Z,36.20
2023-04-23T13:44:56.280Z,31.20
2023-04-23T13:47:42.032Z,35.60
2023-04-23T13:50:28.183Z,42.60
2023-04-23T13:53:16.347Z,45.20
2023-04-23T13:56:01.558Z,40.10
2023-04-23T13:58:48.807Z,41.70
2023-04-23T14:01:34.421Z,39.20
2023-04-23T14:04:24.088Z,39.70
2023-04-23T14:07:10.321Z,40.00
2023-04-23T14:09:55.897Z,44.50
2023-04-23T14:12:41.617Z,38.90
2023-04-23T14:15:27.258Z,42.70
2023-04-23T14:18:12.768Z,42.50
2023-04-23T14:21:00.752Z,43.70
2023-04-23T14:23:55.280Z,38.90
2023-04-23T14:29:35.869Z,36.00
2023-04-23T14:32:23.360Z,34.70
2023-04-23T14:35:10.427Z,38.20
2023-04-23T14:37:57.878Z,39.40
2023-04-23T14:40:43.660Z,37.40
2023-04-23T14:43:29.398Z,35.40
2023-04-23T14:46:14.665Z,34.80
2023-04-23T14:49:00.271Z,36.00
2023-04-23T14:51:47.859Z,34.20
2023-04-23T14:54:33.257Z,36.00
2023-04-23T14:57:18.866Z,35.20
2023-04-23T15:00:06.801Z,32.80
2023-04-23T15:02:52.960Z,32.80
2023-04-23T15:05:40.146Z,32.60
2023-04-23T15:08:25.843Z,30.10
2023-04-23T15:11:16.184Z,28.50
2023-04-23T15:14:07.505Z,29.40
2023-04-23T15:16:53.238Z,28.70
2023-04-23T15:19:38.297Z,29.70
2023-04-23T15:22:26.910Z,29.30
2023-04-23T15:25:12.246Z,26.40
2023-04-23T15:27:59.951Z,26.30
2023-04-23T15:30:47.552Z,27.20
2023-04-23T15:33:35.645Z,26.50
2023-04-23T15:36:21.155Z,27.30
2023-04-23T15:39:07.600Z,25.60
2023-04-23T15:41:53.836Z,25.00
2023-04-23T15:44:41.713Z,26.00
2023-04-23T15:47:29.947Z,26.10
2023-04-23T15:50:22.510Z,24.60
2023-04-23T15:53:08.828Z,24.00
2023-04-23T15:55:54.804Z,25.10
2023-04-23T15:58:40.260Z,23.40
2023-04-23T16:01:27.290Z,23.70
2023-04-23T16:04:13.467Z,22.30
2023-04-23T16:06:58.914Z,22.10
2023-04-23T16:09:44.760Z,22.70
2023-04-23T16:12:32.963Z,22.10
2023-04-23T16:15:23.305Z,23.20
2023-04-23T16:18:08.942Z,23.40
2023-04-23T16:20:54.664Z,22.60
2023-04-23T16:23:42.676Z,22.00
2023-04-23T16:26:31.530Z,22.80
2023-04-23T16:29:22.650Z,23.80
2023-04-23T16:32:10.548Z,23.50
2023-04-23T16:34:55.926Z,23.50
2023-04-23T16:37:41.277Z,24.00
2023-04-23T16:40:29.377Z,24.30
2023-04-23T16:43:14.968Z,25.20
2023-04-23T16:46:00.792Z,25.90
2023-04-23T16:48:48.958Z,25.10
2023-04-23T16:51:34.202Z,24.40
2023-04-23T16:54:22.288Z,23.90
2023-04-23T16:57:08.158Z,23.00
2023-04-23T16:59:54.387Z,21.90
2023-04-23T17:02:42.049Z,21.20
2023-04-23T17:05:34.089Z,20.60
2023-04-23T17:08:19.500Z,20.10
2023-04-23T17:11:08.556Z,19.70
2023-04-23T17:13:54.737Z,19.30
2023-04-23T17:16:41.534Z,19.00
2023-04-23T17:19:27.524Z,18.60
2023-04-23T17:22:12.958Z,18.40
2023-04-23T17:24:59.488Z,18.40
2023-04-23T17:27:47.346Z,18.30
2023-04-23T17:30:35.680Z,18.10
2023-04-23T17:33:22.319Z,18.00
2023-04-23T17:36:11.096Z,17.80
2023-04-23T17:38:56.253Z,17.70
2023-04-23T17:41:44.789Z,17.50
2023-04-23T17:44:30.098Z,17.30
2023-04-23T17:47:15.585Z,17.20
2023-04-23T17:50:00.993Z,17.10
2023-04-23T17:52:46.540Z,16.90
2023-04-23T17:55:33.046Z,16.80
2023-04-23T17:58:19.390Z,16.80
2023-04-23T18:01:04.875Z,16.60
2023-04-23T18:03:51.687Z,16.40
2023-04-23T18:06:37.436Z,16.30
2023-04-23T18:09:25.356Z,16.00
2023-04-23T18:12:11.206Z,15.80
2023-04-23T18:14:57.056Z,15.50
2023-04-23T18:17:45.483Z,15.30
2023-04-23T18:20:33.161Z,15.00
2023-04-23T18:23:20.763Z,14.70
2023-04-23T18:26:06.068Z,14.50
2023-04-23T18:28:51.871Z,14.30
2023-04-23T18:31:37.599Z,14.10
2023-04-23T18:34:30.130Z,14.10
2023-04-23T18:37:34.666Z,13.90
2023-04-23T18:40:20.532Z,13.70
2023-04-23T18:43:06.086Z,13.50
2023-04-23T18:45:51.400Z,13.50
2023-04-23T18:48:51.205Z,13.40
2023-04-23T18:51:50.750Z,13.20
2023-04-23T18:54:39.407Z,13.10
2023-04-23T18:57:24.757Z,13.00
2023-04-23T19:00:11.012Z,13.00
2023-04-23T19:02:57.026Z,12.90
2023-04-23T19:05:42.985Z,12.90
2023-04-23T19:08:29.226Z,12.80
2023-04-23T19:11:14.726Z,12.70
2023-04-23T19:14:02.504Z,12.60
2023-04-23T19:16:50.130Z,12.50
2023-04-23T19:19:35.824Z,12.40
2023-04-23T19:22:24.941Z,12.40
2023-04-23T19:25:10.456Z,12.40
2023-04-23T19:28:01.710Z,12.40
2023-04-23T19:30:50.421Z,12.30
2023-04-23T19:33:35.811Z,12.30
2023-04-23T19:36:23.492Z,12.20
2023-04-23T19:39:10.435Z,12.20
2023-04-23T19:41:58.392Z,12.10
2023-04-23T19:44:43.740Z,12.00
2023-04-23T19:47:29.408Z,11.90
2023-04-23T19:50:19.457Z,11.80
2023-04-23T19:53:10.576Z,11.80
2023-04-23T19:55:56.241Z,11.80
2023-04-23T19:58:42.577Z,11.80
2023-04-23T20:01:31.343Z,11.80
2023-04-23T20:04:17.659Z,11.80
2023-04-23T20:07:03.322Z,11.70
2023-04-23T20:09:49.037Z,11.60
2023-04-23T20:12:34.852Z,11.60
2023-04-23T20:15:24.256Z,11.60
2023-04-23T20:18:09.885Z,11.70
2023-04-23T20:20:58.597Z,11.80
2023-04-23T20:23:46.385Z,11.70
2023-04-23T20:26:32.009Z,11.80
2023-04-23T20:29:17.948Z,12.00
2023-04-23T20:32:03.347Z,12.00
2023-04-23T20:34:48.805Z,11.90
2023-04-23T20:37:35.204Z,11.90
2023-04-23T20:40:20.565Z,11.70
2023-04-23T20:43:06.334Z,11.70
2023-04-23T20:45:52.107Z,11.70
2023-04-23T20:48:39.309Z,11.80
2023-04-23T20:51:25.024Z,11.70
2023-04-23T20:54:11.298Z,11.70
2023-04-23T20:56:58.920Z,11.60
2023-04-23T20:59:44.584Z,11.80
2023-04-23T21:02:32.198Z,11.70
2023-04-23T21:05:20.735Z,11.60
2023-04-23T21:08:06.943Z,11.60
2023-04-23T21:10:52.778Z,11.60
2023-04-23T21:13:38.922Z,11.70
2023-04-23T21:16:27.218Z,11.60
2023-04-23T21:19:12.905Z,11.80
2023-04-23T21:21:58.617Z,11.80
2023-04-23T21:24:49.906Z,11.80
2023-04-23T21:27:35.521Z,11.70
2023-04-23T21:30:50.103Z,11.70
2023-04-23T21:33:35.327Z,11.60
2023-04-23T21:36:20.825Z,11.60
2023-04-23T21:39:06.681Z,11.50
2023-04-23T21:41:52.928Z,11.60
2023-04-23T21:44:39.719Z,11.50
2023-04-23T21:47:25.571Z,11.50
2023-04-23T21:50:11.523Z,11.50
2023-04-23T21:52:59.514Z,11.30
2023-04-23T21:55:45.102Z,11.30
2023-04-23T21:58:32.605Z,11.30
2023-04-23T22:01:18.579Z,11.30
2023-04-23T22:04:04.796Z,11.40
2023-04-23T22:06:51.182Z,11.60
2023-04-23T22:09:36.832Z,11.70
2023-04-23T22:12:22.190Z,11.70
2023-04-23T22:15:15.860Z,11.60
2023-04-23T22:18:02.284Z,11.60
2023-04-23T22:20:51.068Z,11.70
2023-04-23T22:23:36.747Z,11.70
2023-04-23T22:26:22.192Z,11.70
2023-04-23T22:29:08.457Z,11.60
2023-04-23T22:31:53.751Z,11.50
2023-04-23T22:34:39.333Z,11.50
2023-04-23T22:37:25.517Z,11.50
2023-04-23T22:40:11.050Z,11.50
2023-04-23T22:42:56.646Z,11.50
2023-04-23T22:45:42.159Z,11.50
2023-04-23T22:48:27.981Z,11.60
2023-04-23T22:51:14.217Z,11.60
2023-04-23T22:54:02.065Z,11.70
2023-04-23T22:56:47.457Z,11.70
2023-04-23T22:59:33.208Z,11.80
2023-04-23T23:02:21.101Z,11.80
2023-04-23T23:05:08.315Z,11.70
2023-04-23T23:07:55.529Z,11.60
2023-04-23T23:10:40.967Z,11.60
2023-04-23T23:13:29.652Z,11.60
2023-04-23T23:16:17.656Z,11.50
2023-04-23T23:19:04.180Z,11.50
2023-04-23T23:21:52.977Z,11.50
2023-04-23T23:24:38.922Z,11.40
2023-04-23T23:27:24.383Z,11.40
2023-04-23T23:30:10.533Z,11.40
2023-04-23T23:32:58.795Z,11.30
2023-04-23T23:35:44.729Z,11.30
2023-04-23T23:38:29.947Z,11.30
2023-04-23T23:41:15.243Z,11.30
2023-04-23T23:44:03.251Z,11.20
2023-04-23T23:46:48.662Z,11.10
2023-04-23T23:49:34.401Z,11.10
2023-04-23T23:52:19.743Z,11.20
2023-04-23T23:55:07.115Z,11.20
2023-04-23T23:57:55.441Z,11.20
